Time;durP1;ratioP1;P1;durP2;ratioP2;P2;SDS_P1;SDS_P2;PMS_P1;PMS_P2;Temp;Humidity;BMP_temperature;BMP_pressure;BME280_temperature;BME280_humidity;BME280_pressure;Samples;Min_cycle;Max_cycle;Signal;HPM_P1;HPM_P2
2022/08/24 00:00:33;;;;;;;37.92;32.67;;;;;;;18.28;97.48;101709.41;5052371;28;20025;-79
2022/08/24 00:02:59;;;;;;;38.25;31.27;;;;;;;18.17;97.68;101688.53;5035003;28;20039;-73
2022/08/24 00:05:25;;;;;;;43.25;33.47;;;;;;;18.24;97.77;101695.78;5052681;28;20025;-74
2022/08/24 00:07:50;;;;;;;36.88;32.88;;;;;;;18.24;98.14;101700.16;5052648;28;20468;-73
2022/08/24 00:10:17;;;;;;;36.60;31.58;;;;;;;18.11;97.52;101687.28;5052485;28;20029;-73
2022/08/24 00:12:42;;;;;;;40.33;32.25;;;;;;;18.12;98.65;101693.31;5052592;28;20021;-73
2022/08/24 00:15:11;;;;;;;36.80;32.08;;;;;;;18.02;98.35;101694.06;5052448;28;20047;-72
2022/08/24 00:17:36;;;;;;;34.38;30.65;;;;;;;18.12;97.65;101716.84;5052073;28;20033;-73
2022/08/24 00:20:03;;;;;;;34.85;30.10;;;;;;;18.01;97.97;101702.88;5052551;28;20100;-73
2022/08/24 00:22:29;;;;;;;35.05;29.60;;;;;;;18.00;97.81;101708.22;5052362;28;20032;-84
2022/08/24 00:24:55;;;;;;;36.47;29.80;;;;;;;18.03;98.80;101702.75;5052380;28;20021;-79
2022/08/24 00:27:21;;;;;;;34.45;29.95;;;;;;;18.02;98.38;101706.31;5034012;28;20138;-73
2022/08/24 00:29:46;;;;;;;36.25;31.20;;;;;;;17.92;98.50;101702.78;5052280;28;20104;-74
2022/08/24 00:32:11;;;;;;;36.95;29.42;;;;;;;17.95;98.95;101716.41;5052276;28;20103;-73
2022/08/24 00:34:37;;;;;;;35.33;30.88;;;;;;;17.94;98.77;101713.94;5052090;28;20025;-73
2022/08/24 00:37:03;;;;;;;38.60;31.40;;;;;;;17.93;99.03;101720.94;5052312;28;20032;-73
2022/08/24 00:39:28;;;;;;;37.85;31.40;;;;;;;17.91;99.26;101708.97;5052223;28;20028;-71
2022/08/24 00:41:53;;;;;;;34.67;30.85;;;;;;;17.81;98.54;101708.88;5052249;28;20487;-73
2022/08/24 00:44:20;;;;;;;34.55;30.83;;;;;;;17.85;98.77;101712.03;5052088;28;20376;-73
2022/08/24 00:46:58;;;;;;;38.13;32.60;;;;;;;17.78;98.99;101712.53;5034235;28;20029;-73
2022/08/24 00:49:39;;;;;;;37.15;32.78;;;;;;;17.83;99.38;101714.78;5054042;28;20113;-73
2022/08/24 00:52:23;;;;;;;37.70;32.92;;;;;;;17.86;99.56;101724.16;5056196;28;20099;-74
2022/08/24 00:54:54;;;;;;;40.20;34.28;;;;;;;17.85;99.43;101720.72;5055726;28;20103;-74
2022/08/24 00:57:24;;;;;;;40.22;34.30;;;;;;;17.84;99.90;101721.66;5055792;28;20365;-73
2022/08/24 00:59:54;;;;;;;43.33;34.58;;;;;;;17.83;99.62;101724.41;5056070;28;20017;-77
2022/08/24 01:02:25;;;;;;;43.75;36.60;;;;;;;17.75;100.00;101725.84;5055818;28;20025;-73
2022/08/24 01:04:57;;;;;;;41.97;35.45;;;;;;;17.75;99.72;101733.69;5055568;28;20029;-80
2022/08/24 01:07:24;;;;;;;43.42;36.00;;;;;;;17.76;100.00;101727.50;5055534;28;20032;-73
2022/08/24 01:09:52;;;;;;;46.60;37.28;;;;;;;17.68;100.00;101713.34;5055261;28;20074;-82
2022/08/24 01:12:18;;;;;;;45.85;38.95;;;;;;;17.72;100.00;101717.44;5054926;28;20037;-76
2022/08/24 01:14:44;;;;;;;50.78;39.88;;;;;;;17.71;100.00;101700.09;5055748;28;20499;-73
2022/08/24 01:19:57;;;;;;;42.38;35.97;;;;;;;17.65;100.00;101714.41;5055568;28;20125;-74
2022/08/24 01:22:59;;;;;;;41.35;34.35;;;;;;;17.63;100.00;101720.72;5055417;28;20427;-76
2022/08/24 01:25:27;;;;;;;46.58;37.40;;;;;;;17.49;100.00;101706.94;5055507;28;20029;-74
2022/08/24 01:27:56;;;;;;;47.30;37.03;;;;;;;17.57;100.00;101715.97;5037564;28;20029;-73
2022/08/24 01:30:21;;;;;;;44.83;38.22;;;;;;;17.49;100.00;101712.16;5037596;28;20171;-73
2022/08/24 01:32:56;;;;;;;46.47;39.72;;;;;;;17.47;100.00;101715.84;5055330;28;20104;-73
2022/08/24 01:35:22;;;;;;;46.03;39.80;;;;;;;17.42;100.00;101704.97;5054775;28;20388;-82
2022/08/24 01:37:48;;;;;;;47.47;40.30;;;;;;;17.40;100.00;101710.31;5055134;28;20021;-78
2022/08/24 01:40:15;;;;;;;47.15;39.55;;;;;;;17.31;100.00;101694.53;5055197;28;20032;-73
2022/08/24 01:42:46;;;;;;;46.42;38.70;;;;;;;17.37;100.00;101710.53;5054887;28;20469;-73
2022/08/24 01:45:12;;;;;;;48.72;40.10;;;;;;;17.28;100.00;101695.56;5055164;28;20072;-73
2022/08/24 01:47:37;;;;;;;44.40;37.67;;;;;;;17.32;100.00;101704.00;5054925;28;20373;-80
2022/08/24 01:50:03;;;;;;;42.47;37.15;;;;;;;17.28;100.00;101702.56;5054494;28;20040;-74
2022/08/24 01:52:29;;;;;;;44.85;37.95;;;;;;;17.24;100.00;101712.44;5054888;28;20103;-73
2022/08/24 01:54:54;;;;;;;45.28;37.97;;;;;;;17.21;100.00;101710.06;5054687;28;20598;-73
2022/08/24 01:57:23;;;;;;;42.45;37.67;;;;;;;17.20;100.00;101706.59;5054624;28;20530;-73
2022/08/24 01:59:49;;;;;;;46.60;40.15;;;;;;;17.06;100.00;101692.97;5036118;28;20040;-74
2022/08/24 02:02:25;;;;;;;44.13;37.97;;;;;;;17.12;100.00;101705.53;5036226;28;20036;-74
2022/08/24 02:04:51;;;;;;;45.85;38.22;;;;;;;17.09;100.00;101706.59;5054421;28;20568;-74
2022/08/24 02:07:18;;;;;;;42.35;37.35;;;;;;;17.02;100.00;101702.81;5054672;28;20464;-72
2022/08/24 02:09:43;;;;;;;44.03;36.63;;;;;;;17.06;100.00;101706.00;5035914;28;20178;-72
2022/08/24 02:12:08;;;;;;;45.13;36.78;;;;;;;16.96;100.00;101694.59;5054360;28;20108;-73
2022/08/24 02:14:35;;;;;;;43.40;38.25;;;;;;;17.02;100.00;101705.41;5036674;28;20413;-74
2022/08/24 02:17:01;;;;;;;44.08;36.88;;;;;;;16.84;100.00;101673.72;5036539;28;20113;-73
2022/08/24 02:19:26;;;;;;;40.40;35.08;;;;;;;16.97;100.00;101702.31;5035822;28;20064;-75
2022/08/24 02:21:52;;;;;;;44.63;37.28;;;;;;;16.99;100.00;101713.47;5054250;28;20045;-73
2022/08/24 02:24:17;;;;;;;45.83;37.22;;;;;;;16.96;100.00;101705.88;5054077;28;20033;-72
2022/08/24 02:26:42;;;;;;;44.75;38.55;;;;;;;16.86;100.00;101700.53;5054338;28;20017;-74
2022/08/24 02:29:08;;;;;;;39.92;34.50;;;;;;;16.90;100.00;101722.81;5054211;28;20029;-73
2022/08/24 02:31:33;;;;;;;42.90;35.95;;;;;;;16.84;100.00;101723.28;5054012;28;20036;-73
2022/08/24 02:33:59;;;;;;;41.25;35.47;;;;;;;16.87;100.00;101728.25;5053967;28;20064;-73
2022/08/24 02:36:24;;;;;;;41.40;35.50;;;;;;;16.78;100.00;101728.13;5054109;28;20052;-77
2022/08/24 02:38:50;;;;;;;37.22;32.88;;;;;;;16.79;100.00;101730.63;5054038;28;20025;-74
2022/08/24 02:41:15;;;;;;;37.45;33.33;;;;;;;16.74;100.00;101721.50;5054005;28;20406;-73
2022/08/24 02:43:40;;;;;;;37.08;33.10;;;;;;;16.82;100.00;101737.41;5053946;28;20075;-73
2022/08/24 02:46:06;;;;;;;36.47;32.63;;;;;;;16.73;100.00;101731.09;5053770;28;20049;-73
2022/08/24 02:48:32;;;;;;;36.20;32.40;;;;;;;16.63;100.00;101714.44;5053797;28;20090;-73
2022/08/24 02:50:57;;;;;;;39.75;35.08;;;;;;;16.75;100.00;101726.59;5053367;28;20056;-73
2022/08/24 02:53:23;;;;;;;36.95;32.95;;;;;;;16.71;100.00;101721.69;5053558;28;20025;-73
2022/08/24 02:55:49;;;;;;;37.60;33.60;;;;;;;16.69;100.00;101724.41;5053687;28;20419;-73
2022/08/24 02:58:15;;;;;;;40.20;35.80;;;;;;;16.51;100.00;101708.31;5053520;28;20024;-74
2022/08/24 03:00:42;;;;;;;39.92;35.28;;;;;;;16.63;100.00;101730.91;5053492;28;20044;-73
2022/08/24 03:03:08;;;;;;;40.85;36.47;;;;;;;16.50;100.00;101703.22;5053469;28;20032;-73
2022/08/24 03:05:34;;;;;;;41.60;35.13;;;;;;;16.56;100.00;101723.66;5035294;28;20460;-72
2022/08/24 03:07:59;;;;;;;42.72;37.83;;;;;;;16.53;100.00;101716.06;5053249;28;20028;-73
2022/08/24 03:10:25;;;;;;;45.97;39.42;;;;;;;16.46;100.00;101713.06;5053203;28;20025;-75
2022/08/24 03:12:52;;;;;;;44.50;39.70;;;;;;;16.45;100.00;101702.75;5052959;28;20476;-73
2022/08/24 03:15:20;;;;;;;43.25;37.90;;;;;;;16.55;100.00;101724.59;5053398;28;20021;-82
2022/08/24 03:17:45;;;;;;;43.72;38.55;;;;;;;16.57;100.00;101727.91;5053238;28;20032;-83
2022/08/24 03:20:15;;;;;;;46.30;39.63;;;;;;;16.57;100.00;101722.69;5052716;28;20029;-74
2022/08/24 03:22:41;;;;;;;50.38;43.15;;;;;;;16.47;100.00;101713.91;5053322;28;20045;-81
2022/08/24 03:25:07;;;;;;;51.70;43.28;;;;;;;16.53;100.00;101716.88;5053193;28;20021;-74
2022/08/24 03:27:33;;;;;;;47.92;42.08;;;;;;;16.47;100.00;101714.72;5052918;28;20024;-82
2022/08/24 03:30:00;;;;;;;49.47;43.70;;;;;;;16.52;100.00;101717.00;5051016;28;20021;-72
2022/08/24 03:32:25;;;;;;;51.03;42.97;;;;;;;16.45;100.00;101711.41;5052882;28;20108;-74
2022/08/24 03:34:51;;;;;;;47.40;41.42;;;;;;;16.45;100.00;101719.22;5052690;28;20579;-80
2022/08/24 03:37:16;;;;;;;46.92;40.90;;;;;;;16.25;100.00;101686.81;5052609;28;20565;-73
2022/08/24 03:39:41;;;;;;;49.97;42.17;;;;;;;16.33;100.00;101702.72;5052814;28;20061;-72
2022/08/24 03:42:07;;;;;;;53.20;42.92;;;;;;;16.32;100.00;101703.66;5052701;28;20066;-73
2022/08/24 03:44:32;;;;;;;49.75;40.92;;;;;;;16.33;100.00;101707.09;5052809;28;20128;-74
2022/08/24 03:46:58;;;;;;;48.40;41.00;;;;;;;16.25;100.00;101702.44;5052766;28;20021;-73
2022/08/24 03:49:24;;;;;;;48.75;39.78;;;;;;;16.29;100.00;101705.63;5052484;28;20037;-73
2022/08/24 03:51:49;;;;;;;46.85;38.50;;;;;;;16.24;100.00;101707.75;5052676;28;20115;-76
2022/08/24 03:54:15;;;;;;;48.17;40.00;;;;;;;16.31;100.00;101716.78;5052727;28;20024;-77
2022/08/24 03:56:40;;;;;;;48.28;40.10;;;;;;;16.28;100.00;101724.84;5052541;28;20492;-73
2022/08/24 03:59:08;;;;;;;48.33;39.83;;;;;;;16.28;100.00;101720.44;5052423;28;20056;-73
2022/08/24 04:01:33;;;;;;;54.20;41.47;;;;;;;16.25;100.00;101722.47;5052391;28;20439;-73
2022/08/24 04:03:59;;;;;;;47.60;39.63;;;;;;;16.25;100.00;101717.25;5052533;28;20033;-72
2022/08/24 04:06:25;;;;;;;42.38;37.13;;;;;;;16.17;100.00;101711.75;5052210;28;20078;-74
2022/08/24 04:08:52;;;;;;;43.50;37.10;;;;;;;16.21;100.00;101729.66;5052502;28;20480;-73
2022/08/24 04:11:21;;;;;;;43.58;36.42;;;;;;;16.18;100.00;101724.66;5052600;28;20033;-76
2022/08/24 04:13:48;;;;;;;39.83;34.55;;;;;;;16.19;100.00;101728.09;5052644;28;20025;-73
2022/08/24 04:16:17;;;;;;;43.30;36.28;;;;;;;16.10;100.00;101732.19;5052308;28;20373;-74
2022/08/24 04:18:42;;;;;;;41.85;36.20;;;;;;;16.05;100.00;101737.75;5052531;28;20448;-77
2022/08/24 04:21:24;;;;;;;40.40;36.05;;;;;;;16.06;100.00;101742.03;5052195;28;20060;-75
2022/08/24 04:23:53;;;;;;;41.08;35.92;;;;;;;16.06;100.00;101738.59;5053744;28;20027;-77
2022/08/24 04:26:21;;;;;;;41.08;35.20;;;;;;;16.06;100.00;101744.63;5056454;28;20048;-73
2022/08/24 04:28:47;;;;;;;39.15;34.03;;;;;;;16.01;100.00;101738.06;5038726;28;20065;-83
2022/08/24 04:31:13;;;;;;;43.60;36.75;;;;;;;16.01;100.00;101738.91;5056324;28;20436;-75
2022/08/24 04:33:40;;;;;;;44.30;36.42;;;;;;;15.96;100.00;101730.59;5056256;28;20034;-83
2022/08/24 04:36:08;;;;;;;41.70;36.83;;;;;;;16.02;100.00;101744.94;5038394;28;20496;-83
2022/08/24 04:38:34;;;;;;;40.90;36.50;;;;;;;15.99;100.00;101737.34;5056365;28;20017;-83
2022/08/24 04:41:04;;;;;;;42.97;38.13;;;;;;;16.00;100.00;101744.22;5056328;28;20020;-83
2022/08/24 04:43:29;;;;;;;44.33;37.47;;;;;;;16.02;100.00;101740.56;5038410;28;20024;-85
2022/08/24 04:45:55;;;;;;;43.42;38.63;;;;;;;16.01;100.00;101746.72;5038350;28;20112;-83
2022/08/24 04:48:21;;;;;;;49.40;40.97;;;;;;;16.02;100.00;101735.34;5056374;28;20353;-83
2022/08/24 04:50:46;;;;;;;46.78;39.38;;;;;;;16.02;100.00;101745.75;5056516;28;20064;-77
2022/08/24 04:53:13;;;;;;;47.47;41.78;;;;;;;15.99;100.00;101739.94;5055873;28;20033;-80
2022/08/24 04:55:48;;;;;;;44.70;39.90;;;;;;;16.04;100.00;101753.50;5054929;28;20045;-75
2022/08/24 04:58:15;;;;;;;49.08;43.10;;;;;;;16.11;100.00;101749.50;5055886;28;20037;-81
2022/08/24 05:00:41;;;;;;;48.85;43.50;;;;;;;16.10;100.00;101758.25;5055975;28;20021;-87
2022/08/24 05:03:07;;;;;;;45.53;40.13;;;;;;;16.19;100.00;101752.38;5055987;28;20480;-83
2022/08/24 05:05:32;;;;;;;45.55;40.65;;;;;;;16.20;100.00;101761.03;5056615;28;20032;-89
2022/08/24 05:07:58;;;;;;;44.53;39.72;;;;;;;15.99;100.00;101711.28;5055933;28;20032;-92
2022/08/24 05:10:23;;;;;;;37.33;33.35;;;;;;;16.44;100.00;101748.84;5055927;28;20036;-83
2022/08/24 05:12:49;;;;;;;38.05;32.45;;;;;;;16.57;100.00;101749.59;5055589;28;20562;-84
2022/08/24 05:15:15;;;;;;;37.40;31.23;;;;;;;16.71;100.00;101753.81;5055735;28;20119;-81
2022/08/24 05:17:41;;;;;;;35.08;30.13;;;;;;;16.69;100.00;101729.63;5055639;28;20491;-83
2022/08/24 05:20:08;;;;;;;37.08;32.50;;;;;;;16.79;100.00;101743.66;5055441;28;20036;-82
2022/08/24 05:22:34;;;;;;;34.15;29.60;;;;;;;16.97;100.00;101756.28;5055537;28;20029;-81
2022/08/24 05:24:59;;;;;;;43.42;33.58;;;;;;;17.01;100.00;101752.47;5055609;28;20021;-82
2022/08/24 05:27:25;;;;;;;35.28;30.85;;;;;;;17.10;100.00;101751.78;5055358;28;20068;-83
2022/08/24 05:29:53;;;;;;;37.03;31.55;;;;;;;17.21;99.71;101762.28;5055431;28;20029;-80
2022/08/24 05:32:19;;;;;;;38.72;32.60;;;;;;;17.19;99.32;101751.09;5055494;28;20017;-84
2022/08/24 05:34:44;;;;;;;39.22;32.17;;;;;;;17.31;98.86;101760.63;5054809;28;20108;-81
2022/08/24 05:37:10;;;;;;;38.95;32.33;;;;;;;17.26;98.34;101738.41;5055371;28;20021;-84
2022/08/24 05:39:35;;;;;;;36.08;29.73;;;;;;;17.56;98.13;101766.56;5055129;28;20418;-82
2022/08/24 05:42:00;;;;;;;35.20;29.33;;;;;;;17.67;97.62;101764.75;5055252;28;20021;-83
2022/08/24 05:44:29;;;;;;;37.72;29.95;;;;;;;17.67;97.54;101749.09;5054523;28;20421;-86
2022/08/24 05:46:56;;;;;;;34.45;28.42;;;;;;;17.97;96.41;101761.53;5053586;28;20052;-83
2022/08/24 05:49:25;;;;;;;38.10;31.08;;;;;;;18.09;96.32;101757.13;5037277;28;20033;-85
2022/08/24 05:51:51;;;;;;;37.55;31.13;;;;;;;18.76;94.15;101751.66;5055028;28;20071;-84
2022/08/24 05:54:17;;;;;;;37.85;29.77;;;;;;;20.15;87.23;101755.44;5053020;28;20048;-81
2022/08/24 05:56:43;;;;;;;32.00;27.13;;;;;;;21.61;80.79;101735.03;5034001;28;20362;-83
2022/08/24 05:59:09;;;;;;;31.17;26.73;;;;;;;22.94;75.17;101761.50;5035119;28;20056;-77
2022/08/24 06:01:35;;;;;;;28.58;23.33;;;;;;;23.90;69.92;101767.44;5033624;28;20030;-83
2022/08/24 06:04:01;;;;;;;31.05;27.05;;;;;;;24.62;67.73;101773.00;5034529;28;20021;-80
2022/08/24 06:06:27;;;;;;;26.17;20.38;;;;;;;25.50;63.83;101768.53;5034878;28;20053;-82
2022/08/24 06:08:56;;;;;;;21.70;18.40;;;;;;;26.16;60.91;101767.22;5034532;28;20496;-83
2022/08/24 06:11:24;;;;;;;25.10;20.98;;;;;;;26.71;59.16;101766.13;5034646;28;20056;-85
2022/08/24 06:13:52;;;;;;;30.23;26.30;;;;;;;26.97;58.84;101749.00;5034574;28;20064;-83
2022/08/24 06:16:18;;;;;;;33.20;28.40;;;;;;;27.74;56.89;101783.94;5034488;28;20537;-83
2022/08/24 06:19:27;;;;;;;25.70;22.65;;;;;;;28.40;60.28;101784.63;5098512;22;20160;-82
2022/08/24 06:21:53;;;;;;;32.40;25.20;;;;;;;28.74;53.73;101778.59;5013473;23;20142;-87
2022/08/24 06:27:19;;;;;;;32.33;28.05;;;;;;;29.09;52.67;101773.31;4975536;28;20027;-86
2022/08/24 06:27:21;;;;;;;26.40;21.95;;;;;;;29.42;51.12;101771.66;4975483;28;20039;-80
2022/08/24 06:30:03;;;;;;;29.15;25.25;;;;;;;29.79;53.83;101771.41;4975683;28;20385;-80
2022/08/24 06:32:28;;;;;;;29.42;23.52;;;;;;;30.14;48.93;101788.13;4975329;28;20035;-84
2022/08/24 06:34:55;;;;;;;27.20;23.48;;;;;;;30.32;49.82;101791.03;4975478;28;20073;-80
2022/08/24 06:37:25;;;;;;;29.83;24.27;;;;;;;30.48;48.06;101763.97;5074669;23;20052;-85
2022/08/24 06:39:54;;;;;;;36.22;30.67;;;;;;;30.71;47.94;101784.09;5094179;28;20028;-75
2022/08/24 06:42:19;;;;;;;33.70;27.77;;;;;;;30.71;48.17;101768.91;5094549;28;20407;-76
2022/08/24 06:44:45;;;;;;;39.38;31.40;;;;;;;30.98;46.83;101760.88;5094333;28;20024;-75
2022/08/24 06:47:11;;;;;;;33.67;27.77;;;;;;;31.30;46.99;101793.84;5093383;28;20478;-74
2022/08/24 06:49:36;;;;;;;38.35;30.73;;;;;;;31.42;46.58;101773.47;5094046;28;20065;-76
2022/08/24 06:52:04;;;;;;;41.42;33.25;;;;;;;31.83;45.57;101788.28;5093998;28;20020;-79
2022/08/24 06:54:29;;;;;;;32.67;27.80;;;;;;;31.94;45.64;101795.63;5093659;28;20024;-79
2022/08/24 06:56:55;;;;;;;37.95;29.35;;;;;;;32.06;45.36;101777.06;5094113;28;20078;-74
2022/08/24 06:59:20;;;;;;;35.88;29.05;;;;;;;31.99;44.17;101793.13;5094268;28;20031;-77
2022/08/24 07:01:46;;;;;;;33.40;28.25;;;;;;;32.12;43.82;101802.91;5092959;28;20031;-76
2022/08/24 07:04:11;;;;;;;45.45;31.25;;;;;;;32.16;44.18;101802.28;5075406;28;20050;-79
2022/08/24 07:06:36;;;;;;;40.03;31.38;;;;;;;32.13;43.03;101800.03;5093717;28;20497;-78
2022/08/24 07:09:02;;;;;;;33.80;28.98;;;;;;;32.22;42.94;101785.34;5093397;28;20024;-76
2022/08/24 07:11:28;;;;;;;38.25;30.75;;;;;;;32.56;42.09;101787.81;5093426;28;20028;-84
2022/08/24 07:13:53;;;;;;;37.05;30.88;;;;;;;32.38;42.99;101808.13;5075656;28;20020;-77
2022/08/24 07:16:20;;;;;;;39.00;29.05;;;;;;;31.07;44.77;101803.13;5093622;28;20028;-85
2022/08/24 07:18:46;;;;;;;40.58;30.05;;;;;;;29.37;48.98;101797.22;5092644;28;20103;-77
2022/08/24 07:21:11;;;;;;;39.90;30.95;;;;;;;28.11;51.60;101814.78;5093571;28;20108;-79
2022/08/24 07:23:37;;;;;;;37.05;29.08;;;;;;;26.95;54.93;101807.50;5093578;28;20063;-78
2022/08/24 07:26:18;;;;;;;37.50;30.67;;;;;;;26.22;57.08;101800.09;5092994;28;20024;-78
2022/08/24 07:28:44;;;;;;;42.42;31.77;;;;;;;25.61;59.22;101804.38;5093349;28;20020;-81
2022/08/24 07:31:09;;;;;;;46.33;34.13;;;;;;;25.03;62.28;101800.22;5093186;28;20035;-78
2022/08/24 07:33:35;;;;;;;43.40;34.60;;;;;;;24.51;63.94;101795.28;5093098;28;20050;-79
2022/08/24 07:36:00;;;;;;;39.08;30.92;;;;;;;24.28;65.49;101790.56;5092986;28;20165;-79
2022/08/24 07:38:26;;;;;;;43.55;33.58;;;;;;;24.33;66.52;101813.91;5093387;28;20028;-77
2022/08/24 07:40:52;;;;;;;43.97;34.78;;;;;;;24.19;67.31;101814.50;5092980;28;20028;-78
2022/08/24 07:43:19;;;;;;;38.53;34.13;;;;;;;24.10;68.18;101792.56;5075003;28;20478;-75
2022/08/24 07:45:46;;;;;;;39.67;34.78;;;;;;;24.12;67.63;101803.75;5093019;28;20028;-75
2022/08/24 07:48:11;;;;;;;39.03;31.85;;;;;;;24.10;67.61;101810.19;5093012;28;20376;-76
2022/08/24 07:50:37;;;;;;;34.35;28.70;;;;;;;24.16;67.30;101804.25;5092952;28;20028;-71
2022/08/24 07:53:02;;;;;;;37.58;27.20;;;;;;;24.19;66.58;101806.59;5092916;28;20031;-74
2022/08/24 07:55:28;;;;;;;27.70;23.02;;;;;;;24.21;65.37;101799.34;5092550;28;20020;-76
2022/08/24 07:57:53;;;;;;;31.77;23.80;;;;;;;24.31;64.64;101806.16;5092971;28;20028;-77
2022/08/24 08:00:20;;;;;;;32.72;22.85;;;;;;;24.23;64.07;101798.19;5092691;28;20475;-75
2022/08/24 08:02:46;;;;;;;31.88;24.33;;;;;;;24.24;64.71;101799.81;5092651;28;20028;-79
2022/08/24 08:05:17;;;;;;;33.00;22.17;;;;;;;24.36;64.76;101802.19;5092684;28;20028;-72
2022/08/24 08:07:42;;;;;;;29.25;20.60;;;;;;;24.40;63.47;101792.97;5092688;28;20031;-75
2022/08/24 08:10:10;;;;;;;28.75;20.73;;;;;;;24.63;65.22;101812.44;5092570;28;20372;-75
2022/08/24 08:12:36;;;;;;;29.40;22.38;;;;;;;24.66;64.45;101817.38;5092688;28;20032;-73
2022/08/24 08:15:02;;;;;;;27.10;20.75;;;;;;;24.65;62.76;101818.38;5092458;28;20023;-72
2022/08/24 08:17:27;;;;;;;28.60;20.88;;;;;;;24.66;63.25;101817.38;5092663;28;20024;-73
2022/08/24 08:19:53;;;;;;;23.88;20.05;;;;;;;24.62;62.99;101797.59;5092784;28;20024;-81
2022/08/24 08:25:05;;;;;;;25.42;18.40;;;;;;;24.96;62.98;101815.88;5092258;28;20118;-82
2022/08/24 08:27:31;;;;;;;23.15;18.40;;;;;;;24.92;61.21;101813.75;5092434;28;20051;-78
2022/08/24 08:30:28;;;;;;;23.55;17.27;;;;;;;25.10;61.12;101825.00;5305908;23;20044;-80
2022/08/24 08:32:53;;;;;;;22.95;16.73;;;;;;;25.15;60.10;101820.03;5092701;28;20021;-80
2022/08/24 08:35:19;;;;;;;21.60;15.73;;;;;;;25.23;60.26;101817.38;5092655;28;20032;-82
2022/08/24 08:37:45;;;;;;;21.05;16.70;;;;;;;25.09;59.28;101794.28;5092411;28;20015;-81
2022/08/24 08:40:23;;;;;;;22.00;17.65;;;;;;;25.18;58.53;101803.84;5092546;28;20051;-82
2022/08/24 08:43:09;;;;;;;24.10;17.08;;;;;;;25.24;59.55;101815.53;5074319;28;20039;-82
2022/08/24 08:46:01;;;;;;;22.20;14.75;;;;;;;25.32;59.97;101812.88;5092429;28;20158;-82
2022/08/24 08:48:50;;;;;;;24.55;15.63;;;;;;;25.46;59.59;101818.28;5092636;28;20132;-78
2022/08/24 08:51:38;;;;;;;20.35;15.10;;;;;;;25.55;59.88;101821.72;5092608;28;20191;-82
2022/08/24 08:54:29;;;;;;;23.65;16.08;;;;;;;25.52;58.97;101803.56;5092221;28;20036;-80
2022/08/24 08:57:19;;;;;;;20.63;13.25;;;;;;;25.72;58.88;101828.66;5092309;28;20107;-79
2022/08/24 09:00:03;;;;;;;23.10;13.40;;;;;;;25.69;58.34;101807.81;5092373;28;20028;-81
2022/08/24 09:02:55;;;;;;;27.08;15.68;;;;;;;25.79;57.56;101820.03;5092131;28;20391;-81
2022/08/24 09:05:30;;;;;;;18.98;13.25;;;;;;;25.90;57.94;101831.06;5092547;28;20111;-82
2022/08/24 09:08:10;;;;;;;20.63;13.38;;;;;;;25.98;56.88;101824.91;5092245;28;20031;-83
2022/08/24 09:10:46;;;;;;;16.63;10.45;;;;;;;26.07;56.11;101828.34;5094063;28;20068;-83
2022/08/24 09:13:21;;;;;;;12.80;7.50;;;;;;;26.02;53.63;101829.66;5095787;28;20418;-82
2022/08/24 09:16:01;;;;;;;9.18;6.28;;;;;;;26.07;54.31;101823.88;5096184;28;20059;-83
2022/08/24 09:19:13;;;;;;;10.30;6.40;;;;;;;26.19;54.74;101827.75;5096064;28;20024;-79
2022/08/24 09:21:59;;;;;;;14.48;9.68;;;;;;;26.33;55.29;101826.16;5013437;28;20505;-82
2022/08/24 09:24:49;;;;;;;11.23;7.65;;;;;;;26.36;53.81;101825.84;5013684;28;20528;-81
2022/08/24 09:27:24;;;;;;;11.63;7.20;;;;;;;26.44;53.88;101828.44;5013364;28;20108;-83
2022/08/24 09:30:08;;;;;;;13.60;8.77;;;;;;;26.48;54.09;101823.63;5012806;28;20622;-85
2022/08/24 09:32:36;;;;;;;12.00;7.60;;;;;;;26.40;54.09;101828.97;5012194;28;20022;-85
2022/08/24 09:35:08;;;;;;;15.75;9.50;;;;;;;26.41;53.30;101812.09;5012239;28;20036;-74
2022/08/24 09:37:55;;;;;;;12.80;9.00;;;;;;;26.44;54.29;101823.13;5012274;28;20112;-72
2022/08/24 09:40:29;;;;;;;13.40;7.75;;;;;;;26.53;54.57;101830.03;5011874;28;20517;-73
2022/08/24 09:43:13;;;;;;;17.98;11.88;;;;;;;26.53;53.92;101829.22;4995734;28;20045;-74
2022/08/24 09:46:17;;;;;;;16.83;11.68;;;;;;;26.44;54.58;101828.44;4995842;28;20034;-74
2022/08/24 09:49:01;;;;;;;17.63;10.68;;;;;;;26.31;54.72;101833.47;4995730;28;20034;-73
2022/08/24 09:51:54;;;;;;;19.60;12.35;;;;;;;26.16;54.76;101828.13;5012227;28;20041;-73
2022/08/24 09:54:45;;;;;;;15.63;10.40;;;;;;;26.09;55.43;101807.81;5012119;28;20536;-75
2022/08/24 09:57:42;;;;;;;14.73;9.02;;;;;;;26.29;55.37;101820.41;5058243;28;20040;-75
2022/08/24 10:00:15;;;;;;;14.63;8.55;;;;;;;26.49;54.83;101826.09;5075866;28;20451;-74
2022/08/24 10:03:21;;;;;;;12.57;8.63;;;;;;;26.73;54.90;101829.53;5094018;28;20044;-74
2022/08/24 10:06:06;;;;;;;13.80;8.52;;;;;;;26.98;53.64;101823.03;5093846;28;20117;-75
2022/08/24 10:08:48;;;;;;;13.90;7.82;;;;;;;26.81;53.76;101789.72;5093960;28;20466;-75
2022/08/24 10:11:32;;;;;;;18.42;10.10;;;;;;;27.04;52.87;101825.00;5093892;28;20032;-74
2022/08/24 10:14:12;;;;;;;12.45;7.07;;;;;;;27.09;54.39;101812.03;5093856;28;20111;-74
2022/08/24 10:17:03;;;;;;;10.52;6.65;;;;;;;27.26;53.36;101827.78;5094031;28;20422;-74
2022/08/24 10:19:57;;;;;;;11.13;6.40;;;;;;;27.34;52.38;101814.44;5093863;28;20115;-74
2022/08/24 10:22:50;;;;;;;9.50;5.75;;;;;;;27.43;51.16;101813.28;5074090;28;20441;-75
2022/08/24 10:25:27;;;;;;;11.57;5.05;;;;;;;27.39;51.22;101804.91;5093664;28;20030;-76
2022/08/24 10:28:06;;;;;;;9.55;4.38;;;;;;;27.46;50.63;101799.69;5093354;28;20103;-76
2022/08/24 10:30:56;;;;;;;6.97;3.47;;;;;;;27.65;51.40;101804.47;5050137;28;1239584;-72
2022/08/24 10:33:28;;;;;;;4.93;3.17;;;;;;;27.65;49.02;101796.50;5094511;28;20048;-73
2022/08/24 10:36:15;;;;;;;7.72;3.40;;;;;;;27.70;49.80;101804.72;5094316;28;20028;-74
2022/08/24 10:41:58;;;;;;;7.22;4.13;;;;;;;27.44;50.11;101801.72;5093040;28;20117;-71
2022/08/24 10:44:47;;;;;;;7.55;2.97;;;;;;;27.57;50.16;101801.88;5076256;28;20031;-75
2022/08/24 10:47:18;;;;;;;6.45;2.78;;;;;;;27.60;49.07;101790.88;5094039;28;20028;-75
2022/08/24 10:49:47;;;;;;;11.32;3.40;;;;;;;27.54;49.42;101793.47;5093673;28;20034;-70
2022/08/24 10:52:27;;;;;;;6.38;3.20;;;;;;;27.42;50.61;101799.22;5093836;28;20031;-74
2022/08/24 10:54:53;;;;;;;7.97;3.50;;;;;;;27.18;50.82;101778.28;5093878;28;20027;-74
2022/08/24 10:57:35;;;;;;;5.97;3.22;;;;;;;27.24;51.74;101800.63;5093694;28;20149;-72
2022/08/24 11:00:13;;;;;;;6.10;2.47;;;;;;;27.11;50.69;101795.91;5093747;28;20042;-73
2022/08/24 11:02:40;;;;;;;7.60;2.47;;;;;;;26.99;52.25;101795.53;5093942;28;20463;-80
2022/08/24 11:05:09;;;;;;;5.15;2.63;;;;;;;27.00;51.48;101799.00;5094084;28;20024;-76
2022/08/24 11:07:36;;;;;;;5.47;2.92;;;;;;;27.00;51.01;101791.88;5093824;28;20024;-80
2022/08/24 11:10:06;;;;;;;4.85;3.03;;;;;;;26.98;50.71;101783.28;5093623;28;20078;-83
2022/08/24 11:12:41;;;;;;;5.55;3.35;;;;;;;27.15;49.93;101792.75;5093698;28;20036;-76
2022/08/24 11:15:20;;;;;;;4.95;2.70;;;;;;;27.45;49.98;101790.09;5093590;28;20016;-74
2022/08/24 11:17:57;;;;;;;6.85;3.10;;;;;;;27.81;49.35;101791.97;5093567;28;20024;-82
2022/08/24 11:20:38;;;;;;;6.07;3.28;;;;;;;28.21;48.63;101785.25;5093515;28;20024;-85
2022/08/24 11:23:23;;;;;;;5.68;3.40;;;;;;;28.46;48.12;101772.44;5093529;28;20471;-81
2022/08/24 11:26:04;;;;;;;9.10;3.95;;;;;;;28.79;46.09;101784.16;5093460;28;20057;-83
2022/08/24 11:28:39;;;;;;;6.50;3.40;;;;;;;29.10;45.32;101780.28;5093204;28;20028;-82
2022/08/24 11:31:11;;;;;;;6.13;2.60;;;;;;;29.38;45.05;101783.72;5092865;28;20048;-80
2022/08/24 11:33:57;;;;;;;5.63;3.17;;;;;;;29.51;45.03;101772.34;5093069;28;20077;-82